createdAt,value
2019-04-16T00:02:10.910Z,100238.87
2019-04-16T00:04:57.671Z,100238.17
2019-04-16T00:07:52.146Z,100234.10
2019-04-16T00:10:25.343Z,100230.06
2019-04-16T00:13:04.043Z,100231.83
2019-04-16T00:15:34.182Z,100221.23
2019-04-16T00:18:03.009Z,100221.23
2019-04-16T00:20:37.989Z,100223.77
2019-04-16T00:23:12.406Z,100216.70
2019-04-16T00:25:40.602Z,100214.64
2019-04-16T00:28:09.408Z,100214.64
2019-04-16T00:30:37.865Z,100209.09
2019-04-16T00:33:04.640Z,100209.09
2019-04-16T00:35:33.938Z,100213.98
2019-04-16T00:38:03.482Z,100219.97
2019-04-16T00:40:33.981Z,100214.41
2019-04-16T00:43:03.184Z,100220.70
2019-04-16T00:45:31.487Z,100223.50
2019-04-16T00:47:58.742Z,100219.40
2019-04-16T00:50:26.204Z,100236.85
2019-04-16T00:52:54.373Z,100218.28
2019-04-16T00:55:21.181Z,100218.28
2019-04-16T00:57:48.672Z,100215.34
2019-04-16T01:00:17.548Z,100215.34
2019-04-16T01:02:46.910Z,100214.77
2019-04-16T01:05:13.097Z,100210.70
2019-04-16T01:07:39.793Z,100221.83
2019-04-16T01:10:06.770Z,100210.63
2019-04-16T01:12:33.458Z,100203.89
2019-04-16T01:15:01.062Z,100204.34
2019-04-16T01:17:28.056Z,100203.02
2019-04-16T01:19:55.816Z,100194.16
2019-04-16T01:22:22.403Z,100198.52
2019-04-16T01:24:51.874Z,100195.49
2019-04-16T01:27:21.303Z,100208.80
2019-04-16T01:29:47.888Z,100200.98
2019-04-16T01:32:34.351Z,100218.45
2019-04-16T01:35:23.208Z,100208.56
2019-04-16T01:38:15.337Z,100208.64
2019-04-16T01:41:07.202Z,100207.89
2019-04-16T01:43:34.103Z,100210.63
2019-04-16T01:46:02.460Z,100210.95
2019-04-16T01:48:30.020Z,100210.06
2019-04-16T01:50:56.697Z,100207.70
2019-04-16T01:53:23.486Z,100211.30
2019-04-16T01:55:50.068Z,100208.92
2019-04-16T01:58:16.776Z,100209.34
2019-04-16T02:00:43.551Z,100214.14
2019-04-16T02:03:11.621Z,100208.09
2019-04-16T02:05:38.443Z,100214.19
2019-04-16T02:08:05.227Z,100214.42
2019-04-16T02:10:38.516Z,100210.13
2019-04-16T02:13:05.247Z,100207.32
2019-04-16T02:15:32.044Z,100212.06
2019-04-16T02:17:59.579Z,100212.77
2019-04-16T02:20:26.827Z,100205.60
2019-04-16T02:22:53.529Z,100210.73
2019-04-16T02:25:39.831Z,100206.94
2019-04-16T02:30:39.908Z,100215.58
2019-04-16T02:33:06.949Z,100217.73
2019-04-16T02:35:33.719Z,100217.03
2019-04-16T02:38:00.708Z,100211.98
2019-04-16T02:40:27.515Z,100216.84
2019-04-16T02:42:54.342Z,100219.27
2019-04-16T02:45:40.733Z,100217.27
2019-04-16T02:48:07.531Z,100218.48
2019-04-16T02:50:43.336Z,100213.91
2019-04-16T02:53:29.788Z,100216.03
2019-04-16T02:56:34.444Z,100213.32
2019-04-16T02:59:27.660Z,100220.23
2019-04-16T03:02:22.698Z,100208.63
2019-04-16T03:04:58.148Z,100205.30
2019-04-16T03:07:24.375Z,100207.39
2019-04-16T03:10:01.062Z,100200.58
2019-04-16T03:12:20.873Z,100199.91
2019-04-16T03:14:48.447Z,100193.53
2019-04-16T03:17:43.740Z,100189.86
2019-04-16T03:20:11.204Z,100188.98
2019-04-16T03:22:37.997Z,100187.12
2019-04-16T03:25:06.112Z,100183.00
2019-04-16T03:27:32.928Z,100173.70
2019-04-16T03:30:03.550Z,100178.52
2019-04-16T03:32:33.207Z,100170.09
2019-04-16T03:34:58.592Z,100172.53
2019-04-16T03:37:25.188Z,100179.16
2019-04-16T03:39:51.769Z,100172.61
2019-04-16T03:42:18.561Z,100166.73
2019-04-16T03:44:45.128Z,100168.00
2019-04-16T03:47:11.942Z,100158.68
2019-04-16T03:49:38.603Z,100161.39
2019-04-16T03:52:08.436Z,100155.25
2019-04-16T03:54:34.000Z,100154.44
2019-04-16T03:57:02.222Z,100142.70
2019-04-16T03:59:29.381Z,100147.30
2019-04-16T04:01:56.155Z,100137.52
2019-04-16T04:04:28.929Z,100106.55
2019-04-16T04:06:52.881Z,100138.25
2019-04-16T04:09:22.388Z,100135.17
2019-04-16T04:11:49.629Z,100136.73
2019-04-16T04:14:16.343Z,100138.58
2019-04-16T04:16:43.091Z,100136.16
2019-04-16T04:19:14.096Z,100132.66
2019-04-16T04:21:38.482Z,100140.05
2019-04-16T04:24:05.282Z,100139.50
2019-04-16T04:26:31.960Z,100137.22
2019-04-16T04:28:58.544Z,100141.80
2019-04-16T04:31:25.223Z,100139.12
2019-04-16T04:33:51.922Z,100137.70
2019-04-16T04:36:19.694Z,100140.23
2019-04-16T04:38:47.390Z,100134.52
2019-04-16T04:41:14.067Z,100133.72
2019-04-16T04:43:40.745Z,100138.44
2019-04-16T04:46:12.520Z,100138.06
2019-04-16T04:48:36.089Z,100138.55
2019-04-16T04:51:08.209Z,100146.83
2019-04-16T04:53:32.745Z,100145.36
2019-04-16T04:55:59.427Z,100149.45
2019-04-16T04:58:26.134Z,100143.16
2019-04-16T05:00:52.949Z,100139.30
2019-04-16T05:03:37.738Z,100148.51
2019-04-16T05:06:05.472Z,100149.55
2019-04-16T05:08:32.504Z,100148.70
2019-04-16T05:11:02.758Z,100151.52
2019-04-16T05:13:28.138Z,100149.20
2019-04-16T05:15:54.918Z,100157.17
2019-04-16T05:18:21.507Z,100146.31
2019-04-16T05:20:48.192Z,100147.17
2019-04-16T05:23:14.867Z,100149.61
2019-04-16T05:25:41.669Z,100148.38
2019-04-16T05:28:11.681Z,100147.30
2019-04-16T05:30:36.850Z,100149.58
2019-04-16T05:33:05.584Z,100145.00
2019-04-16T05:35:32.246Z,100144.97
2019-04-16T05:37:59.032Z,100147.09
2019-04-16T05:40:27.618Z,100145.13
2019-04-16T05:42:58.303Z,100153.66
2019-04-16T05:45:24.033Z,100151.33
2019-04-16T05:47:50.720Z,100150.27
2019-04-16T05:50:17.864Z,100152.36
2019-04-16T05:52:44.649Z,100147.83
2019-04-16T05:55:28.780Z,100144.42
2019-04-16T05:57:58.167Z,100146.56
2019-04-16T06:00:32.368Z,100144.73
2019-04-16T06:02:59.144Z,100148.95
2019-04-16T06:05:27.974Z,100143.75
2019-04-16T06:07:57.257Z,100143.23
2019-04-16T06:10:23.970Z,100144.83
2019-04-16T06:13:19.050Z,100144.97
2019-04-16T06:19:03.624Z,100145.17
2019-04-16T06:21:49.961Z,100141.34
2019-04-16T06:24:23.358Z,100141.14
2019-04-16T06:27:12.833Z,100138.87
2019-04-16T06:29:50.638Z,100142.84
2019-04-16T06:32:29.215Z,100136.67
2019-04-16T06:35:14.122Z,100134.00
2019-04-16T06:37:47.827Z,100132.88
2019-04-16T06:40:32.912Z,100122.77
2019-04-16T06:43:08.072Z,100122.72
2019-04-16T06:45:42.460Z,100112.77
2019-04-16T06:48:13.184Z,100116.52
2019-04-16T06:50:58.753Z,100124.02
2019-04-16T06:53:59.725Z,100110.02
2019-04-16T06:56:44.458Z,100105.93
2019-04-16T06:59:17.935Z,100106.72
2019-04-16T07:02:16.399Z,100107.04
2019-04-16T07:05:08.461Z,100100.56
2019-04-16T07:07:53.508Z,100094.66
2019-04-16T07:10:22.046Z,100087.79
2019-04-16T07:12:48.846Z,100091.13
2019-04-16T07:15:15.809Z,100087.52
2019-04-16T07:17:42.577Z,100091.22
2019-04-16T07:20:13.104Z,100089.28
2019-04-16T07:22:37.743Z,100087.16
2019-04-16T07:25:05.779Z,100087.11
2019-04-16T07:27:41.916Z,100089.50
2019-04-16T07:30:19.568Z,100090.07
2019-04-16T07:32:53.450Z,100085.18
2019-04-16T07:35:44.021Z,100081.19
2019-04-16T07:38:13.695Z,100080.70
2019-04-16T07:40:57.400Z,100081.31
2019-04-16T07:43:42.166Z,100073.55
2019-04-16T07:46:31.425Z,100082.05
2019-04-16T07:49:09.721Z,100073.08
2019-04-16T07:52:11.721Z,100074.02
2019-04-16T07:54:56.025Z,100075.93
2019-04-16T07:57:22.714Z,100080.14
2019-04-16T07:59:51.733Z,100079.48
2019-04-16T08:02:21.431Z,100073.12
2019-04-16T08:04:48.435Z,100075.77
2019-04-16T08:07:20.103Z,100069.45
2019-04-16T08:09:43.920Z,100073.41
2019-04-16T08:12:28.797Z,100076.62
2019-04-16T08:14:39.231Z,100075.58
2019-04-16T08:17:05.931Z,100080.73
2019-04-16T08:19:37.141Z,100083.47
2019-04-16T08:22:03.777Z,100078.30
2019-04-16T08:24:34.561Z,100073.48
2019-04-16T08:27:01.365Z,100070.70
2019-04-16T08:29:28.306Z,100071.04
2019-04-16T08:31:55.033Z,100072.59
2019-04-16T08:34:21.845Z,100072.31
2019-04-16T08:36:48.642Z,100071.46
2019-04-16T08:39:15.523Z,100068.51
2019-04-16T08:41:42.207Z,100066.46
2019-04-16T08:44:10.386Z,100068.86
2019-04-16T08:46:40.085Z,100069.07
2019-04-16T08:49:06.288Z,100060.54
2019-04-16T08:51:37.076Z,100068.27
2019-04-16T08:54:01.670Z,100063.66
2019-04-16T08:56:28.475Z,100068.74
2019-04-16T08:58:59.898Z,100059.59
2019-04-16T09:01:26.944Z,100057.13
2019-04-16T09:03:53.731Z,100066.38
2019-04-16T09:06:21.408Z,100060.89
2019-04-16T09:09:24.392Z,100062.62
2019-04-16T09:11:54.752Z,100063.08
2019-04-16T09:14:25.660Z,100065.19
2019-04-16T09:17:11.421Z,100057.89
2019-04-16T09:19:40.079Z,100055.16
2019-04-16T09:22:06.873Z,100051.00
2019-04-16T09:24:41.654Z,100055.19
2019-04-16T09:27:29.612Z,100049.78
2019-04-16T09:30:22.159Z,100033.63
2019-04-16T09:33:06.968Z,100048.13
2019-04-16T09:35:38.049Z,100045.97
2019-04-16T09:38:16.901Z,100041.02
2019-04-16T09:40:51.470Z,100044.88
2019-04-16T09:43:20.828Z,100041.44
2019-04-16T09:45:47.946Z,100043.54
2019-04-16T09:48:14.652Z,100044.77
2019-04-16T09:50:46.703Z,100038.38
2019-04-16T09:53:10.060Z,100034.47
2019-04-16T09:55:36.758Z,100032.92
2019-04-16T09:58:10.531Z,100032.67
2019-04-16T10:01:18.320Z,100028.22
2019-04-16T10:03:47.009Z,100024.20
2019-04-16T10:06:13.823Z,100021.78
2019-04-16T10:08:44.556Z,100021.78
2019-04-16T10:11:09.197Z,100014.41
2019-04-16T10:13:36.476Z,100019.05
2019-04-16T10:16:03.598Z,100018.56
2019-04-16T10:18:34.727Z,100010.78
2019-04-16T10:20:59.022Z,100016.09
2019-04-16T10:23:35.286Z,100014.66
2019-04-16T10:26:02.381Z,100011.83
2019-04-16T10:28:33.994Z,100006.73
2019-04-16T10:31:00.902Z,99994.16
2019-04-16T10:33:27.719Z,99997.66
2019-04-16T10:35:57.367Z,99999.80
2019-04-16T10:38:42.628Z,99998.31
2019-04-16T10:41:13.046Z,99996.88
2019-04-16T10:43:56.704Z,99989.09
2019-04-16T10:46:41.770Z,99987.45
2019-04-16T10:49:29.519Z,99983.27
2019-04-16T10:52:27.997Z,99987.21
2019-04-16T10:54:59.911Z,99980.89
2019-04-16T10:57:46.448Z,99981.92
2019-04-16T11:00:24.419Z,99980.33
2019-04-16T11:03:28.673Z,99977.42
2019-04-16T11:06:10.494Z,99973.06
2019-04-16T11:08:37.298Z,99985.42
2019-04-16T11:11:04.089Z,99982.73
2019-04-16T11:13:42.705Z,99982.82
2019-04-16T11:16:16.566Z,99976.77
2019-04-16T11:18:43.555Z,99968.97
2019-04-16T11:21:10.437Z,99973.52
2019-04-16T11:23:37.142Z,99985.94
2019-04-16T11:26:03.918Z,99975.04
2019-04-16T11:28:30.725Z,99972.33
2019-04-16T11:30:58.943Z,99971.48
2019-04-16T11:33:27.506Z,99959.00
2019-04-16T11:35:54.401Z,99973.78
2019-04-16T11:38:25.270Z,99968.51
2019-04-16T11:40:58.551Z,99960.87
2019-04-16T11:43:29.333Z,99970.77
2019-04-16T11:45:56.141Z,99964.84
2019-04-16T11:48:27.136Z,99963.13
2019-04-16T11:50:55.774Z,99960.88
2019-04-16T11:53:22.486Z,99968.32
2019-04-16T11:55:49.256Z,99957.66
2019-04-16T11:58:38.442Z,99960.53
2019-04-16T12:01:15.370Z,99961.56
2019-04-16T12:04:14.571Z,99960.34
2019-04-16T12:06:58.956Z,99959.84
2019-04-16T12:10:00.415Z,99958.64
2019-04-16T12:12:46.919Z,99953.10
2019-04-16T12:15:17.749Z,99925.00
2019-04-16T12:18:00.080Z,99954.41
2019-04-16T12:20:44.924Z,99957.47
2019-04-16T12:23:24.449Z,99945.70
2019-04-16T12:26:10.213Z,99949.85
2019-04-16T12:28:56.891Z,99946.77
2019-04-16T12:31:46.067Z,99953.75
2019-04-16T12:34:19.453Z,99941.36
2019-04-16T12:37:18.184Z,99946.23
2019-04-16T12:40:02.467Z,99944.52
2019-04-16T12:42:34.831Z,99927.58
2019-04-16T12:45:19.135Z,99943.86
2019-04-16T12:47:59.263Z,99943.86
2019-04-16T12:50:46.018Z,99947.91
2019-04-16T12:53:21.547Z,99947.61
2019-04-16T12:56:08.430Z,99935.92
2019-04-16T12:58:50.400Z,99938.98
2019-04-16T13:01:37.162Z,99933.48
2019-04-16T13:04:11.047Z,99938.03
2019-04-16T13:06:45.046Z,99928.41
2019-04-16T13:09:26.955Z,99932.23
2019-04-16T13:11:59.615Z,99927.33
2019-04-16T13:14:59.944Z,99930.25
2019-04-16T13:17:34.316Z,99925.26
2019-04-16T13:20:11.987Z,99926.34
2019-04-16T13:22:43.916Z,99927.25
2019-04-16T13:25:17.340Z,99925.02
2019-04-16T13:27:44.482Z,99917.19
2019-04-16T13:30:11.384Z,99920.09
2019-04-16T13:32:38.162Z,99916.24
2019-04-16T13:35:05.480Z,99921.66
2019-04-16T13:37:36.975Z,99911.58
2019-04-16T13:40:04.064Z,99920.02
2019-04-16T13:42:30.742Z,99926.22
2019-04-16T13:45:21.690Z,99918.17
2019-04-16T13:47:47.127Z,99932.70
2019-04-16T13:50:39.919Z,99933.13
2019-04-16T13:53:08.844Z,99919.61
2019-04-16T13:55:58.170Z,99916.45
2019-04-16T13:58:41.549Z,99912.22
2019-04-16T14:01:14.556Z,99912.22
2019-04-16T14:03:41.353Z,99924.70
2019-04-16T14:06:10.389Z,99913.98
2019-04-16T14:08:36.884Z,99911.89
2019-04-16T14:11:03.679Z,99902.64
2019-04-16T14:13:30.375Z,99904.98
2019-04-16T14:15:57.343Z,99902.17
2019-04-16T14:18:24.192Z,99913.09
2019-04-16T14:20:50.886Z,99907.47
2019-04-16T14:23:17.583Z,99903.03
2019-04-16T14:25:44.663Z,99907.51
2019-04-16T14:28:11.455Z,99909.27
2019-04-16T14:30:43.556Z,99905.48
2019-04-16T14:33:14.011Z,99907.75
2019-04-16T14:35:40.742Z,99903.91
2019-04-16T14:38:08.075Z,99911.19
2019-04-16T14:40:34.874Z,99906.59
2019-04-16T14:43:01.952Z,99906.12
2019-04-16T14:45:43.565Z,99915.94
2019-04-16T14:48:07.633Z,99913.12
2019-04-16T14:50:33.055Z,99911.08
2019-04-16T14:52:59.309Z,99914.44
2019-04-16T14:55:59.689Z,99912.78
2019-04-16T14:58:35.323Z,99905.40
2019-04-16T15:01:14.865Z,99909.17
2019-04-16T15:04:10.334Z,99915.06
2019-04-16T15:07:02.697Z,99904.66
2019-04-16T15:09:35.196Z,99913.08
2019-04-16T15:12:24.629Z,99910.28
2019-04-16T15:15:11.739Z,99903.39
2019-04-16T15:18:01.927Z,99907.20
2019-04-16T15:20:51.147Z,99910.53
2019-04-16T15:23:34.757Z,99908.95
2019-04-16T15:26:27.207Z,99901.83
2019-04-16T15:29:09.247Z,99912.45
2019-04-16T15:31:42.038Z,99905.84
2019-04-16T15:34:17.978Z,99904.58
2019-04-16T15:36:53.311Z,99910.55
2019-04-16T15:39:25.007Z,99905.48
2019-04-16T15:42:20.458Z,99914.94
2019-04-16T15:45:09.144Z,99914.05
2019-04-16T15:48:14.859Z,99918.11
2019-04-16T15:51:01.408Z,99924.19
2019-04-16T15:53:56.678Z,99918.88
2019-04-16T15:56:32.493Z,99917.63
2019-04-16T15:59:04.646Z,99918.54
2019-04-16T16:01:57.189Z,99921.31
2019-04-16T16:04:33.153Z,99921.91
2019-04-16T16:07:09.225Z,99921.78
2019-04-16T16:09:58.095Z,99926.61
2019-04-16T16:12:25.349Z,99926.55
2019-04-16T16:14:52.042Z,99920.73
2019-04-16T16:17:19.494Z,99933.46
2019-04-16T16:19:47.592Z,99926.51
2019-04-16T16:22:14.149Z,99934.84
2019-04-16T16:24:42.433Z,99934.54
2019-04-16T16:27:09.636Z,99928.84
2019-04-16T16:29:36.419Z,99927.37
2019-04-16T16:32:03.259Z,99934.03
2019-04-16T16:34:30.039Z,99931.94
2019-04-16T16:36:56.633Z,99952.56
2019-04-16T16:39:23.392Z,99944.61
2019-04-16T16:41:50.094Z,99946.38
2019-04-16T16:44:16.767Z,99955.45
2019-04-16T16:46:57.432Z,99952.80
2019-04-16T16:49:23.033Z,99959.75
2019-04-16T16:52:09.485Z,99957.27
2019-04-16T16:54:36.650Z,99952.48
2019-04-16T16:57:10.930Z,99958.60
2019-04-16T16:59:54.407Z,99954.38
2019-04-16T17:02:29.686Z,99965.88
2019-04-16T17:04:56.578Z,99973.09
2019-04-16T17:07:23.441Z,99974.71
2019-04-16T17:09:57.793Z,99979.63
2019-04-16T17:12:24.498Z,99979.03
2019-04-16T17:14:51.311Z,99983.24
2019-04-16T17:17:18.206Z,99983.15
2019-04-16T17:19:45.001Z,99989.62
2019-04-16T17:22:14.717Z,99979.30
2019-04-16T17:24:40.543Z,99978.67
2019-04-16T17:27:07.429Z,99984.76
2019-04-16T17:29:34.155Z,99988.35
2019-04-16T17:32:00.962Z,99988.98
2019-04-16T17:34:27.844Z,99967.67
2019-04-16T17:36:54.962Z,99992.91
2019-04-16T17:39:44.005Z,99993.06
2019-04-16T17:42:11.467Z,99995.49
2019-04-16T17:45:00.639Z,99999.69
2019-04-16T17:47:47.106Z,100004.93
2019-04-16T17:50:21.441Z,100005.21
2019-04-16T17:53:11.864Z,100015.67
2019-04-16T17:56:13.122Z,100014.63
2019-04-16T17:58:49.989Z,100016.66
2019-04-16T18:01:40.384Z,100019.22
2019-04-16T18:04:17.444Z,100021.38
2019-04-16T18:06:58.976Z,100030.30
2019-04-16T18:09:40.135Z,100032.09
2019-04-16T18:12:42.028Z,100037.47
2019-04-16T18:15:16.982Z,100036.13
2019-04-16T18:18:09.380Z,100034.53
2019-04-16T18:20:58.739Z,100041.86
2019-04-16T18:23:47.011Z,100036.84
2019-04-16T18:26:45.751Z,100053.83
2019-04-16T18:29:32.799Z,100054.02
2019-04-16T18:32:34.889Z,100055.22
2019-04-16T18:35:25.903Z,100039.30
2019-04-16T18:38:15.045Z,100064.80
2019-04-16T18:41:02.195Z,100071.91
2019-04-16T18:43:44.216Z,100079.51
2019-04-16T18:46:26.961Z,100075.00
2019-04-16T18:48:57.273Z,100077.23
2019-04-16T18:51:24.105Z,100085.63
2019-04-16T18:53:51.938Z,100087.26
2019-04-16T18:56:18.622Z,100098.06
2019-04-16T18:58:47.163Z,100091.55
2019-04-16T19:01:18.924Z,100101.45
2019-04-16T19:03:45.738Z,100098.89
2019-04-16T19:06:13.713Z,100101.67
2019-04-16T19:08:42.284Z,100107.94
2019-04-16T19:11:09.219Z,100112.27
2019-04-16T19:13:36.037Z,100109.50
2019-04-16T19:16:02.926Z,100111.56
2019-04-16T19:18:29.738Z,100118.23
2019-04-16T19:20:56.844Z,100119.64
2019-04-16T19:23:23.550Z,100119.25
2019-04-16T19:25:51.827Z,100120.80
2019-04-16T19:28:21.644Z,100127.48
2019-04-16T19:30:48.333Z,100125.67
2019-04-16T19:33:14.936Z,100135.28
2019-04-16T19:35:41.719Z,100133.03
2019-04-16T19:38:08.409Z,100138.84
2019-04-16T19:40:35.111Z,100143.66
2019-04-16T19:43:03.173Z,100139.91
2019-04-16T19:45:30.439Z,100148.94
2019-04-16T19:48:00.241Z,100146.56
2019-04-16T19:50:29.777Z,100149.02
2019-04-16T19:52:54.989Z,100150.34
2019-04-16T19:55:21.935Z,100160.10
2019-04-16T19:57:48.658Z,100154.64
2019-04-16T20:00:22.029Z,100154.03
2019-04-16T20:02:44.160Z,100154.47
2019-04-16T20:05:11.053Z,100153.07
2019-04-16T20:07:37.644Z,100159.80
2019-04-16T20:10:04.579Z,100164.31
2019-04-16T20:12:31.264Z,100158.97
2019-04-16T20:14:57.978Z,100160.97
2019-04-16T20:17:24.757Z,100163.05
2019-04-16T20:19:57.693Z,100167.22
2019-04-16T20:22:25.716Z,100158.14
2019-04-16T20:24:53.006Z,100159.42
2019-04-16T20:27:19.817Z,100171.34
2019-04-16T20:29:46.510Z,100166.66
2019-04-16T20:32:13.114Z,100163.59
2019-04-16T20:34:42.405Z,100180.16
2019-04-16T20:37:08.607Z,100167.05
2019-04-16T20:39:35.324Z,100167.77
2019-04-16T20:42:02.102Z,100170.88
2019-04-16T20:44:28.901Z,100175.52
2019-04-16T20:46:58.571Z,100169.18
2019-04-16T20:49:24.277Z,100175.55
2019-04-16T20:51:50.951Z,100178.33
2019-04-16T20:54:17.653Z,100178.12
2019-04-16T20:56:44.316Z,100176.27
2019-04-16T20:59:11.014Z,100175.75
2019-04-16T21:01:37.970Z,100178.84
2019-04-16T21:04:06.429Z,100185.72
2019-04-16T21:06:33.587Z,100178.75
2019-04-16T21:09:00.454Z,100188.82
2019-04-16T21:11:27.174Z,100182.30
2019-04-16T21:13:54.187Z,100186.92
2019-04-16T21:16:21.397Z,100190.50
2019-04-16T21:18:48.168Z,100192.02
2019-04-16T21:21:14.805Z,100191.42
2019-04-16T21:23:41.890Z,100194.60
2019-04-16T21:26:08.587Z,100190.95
2019-04-16T21:28:50.379Z,100194.70
2019-04-16T21:31:22.154Z,100198.86
2019-04-16T21:33:56.740Z,100203.22
2019-04-16T21:36:37.989Z,100172.66
2019-04-16T21:39:07.567Z,100206.54
2019-04-16T21:41:34.266Z,100211.73
2019-04-16T21:44:01.045Z,100211.02
2019-04-16T21:46:27.732Z,100208.30
2019-04-16T21:48:55.928Z,100216.92
2019-04-16T21:51:24.320Z,100217.64
2019-04-16T21:53:51.198Z,100218.34
2019-04-16T21:56:17.892Z,100215.04
2019-04-16T21:58:46.655Z,100218.59
2019-04-16T22:01:25.368Z,100219.06
2019-04-16T22:03:58.305Z,100226.01
2019-04-16T22:06:25.246Z,100221.77
2019-04-16T22:08:52.017Z,100224.14
2019-04-16T22:11:18.613Z,100223.06
2019-04-16T22:13:50.447Z,100224.95
2019-04-16T22:16:13.917Z,100222.70
2019-04-16T22:18:41.618Z,100228.80
2019-04-16T22:21:10.703Z,100231.28
2019-04-16T22:23:37.797Z,100229.39
2019-04-16T22:26:04.600Z,100223.66
2019-04-16T22:28:31.377Z,100232.72
2019-04-16T22:30:58.178Z,100229.33
2019-04-16T22:33:24.968Z,100224.61
2019-04-16T22:35:51.664Z,100237.45
2019-04-16T22:38:18.232Z,100240.61
2019-04-16T22:40:58.821Z,100240.14
2019-04-16T22:43:45.308Z,100236.44
2019-04-16T22:46:37.489Z,100248.09
2019-04-16T22:49:04.531Z,100240.45
2019-04-16T22:51:31.283Z,100251.22
2019-04-16T22:53:58.408Z,100252.00
2019-04-16T22:56:39.422Z,100252.62
2019-04-16T22:59:07.734Z,100256.77
2019-04-16T23:01:36.032Z,100252.94
2019-04-16T23:04:02.820Z,100253.52
2019-04-16T23:06:29.539Z,100260.73
2019-04-16T23:08:56.313Z,100261.41
2019-04-16T23:11:23.717Z,100258.27
2019-04-16T23:13:53.363Z,100260.60
2019-04-16T23:16:20.164Z,100257.59
2019-04-16T23:18:49.253Z,100258.44
2019-04-16T23:21:15.312Z,100263.76
2019-04-16T23:23:42.129Z,100259.87
2019-04-16T23:26:08.830Z,100258.24
2019-04-16T23:28:35.507Z,100258.63
2019-04-16T23:31:02.346Z,100257.92
2019-04-16T23:33:32.530Z,100258.05
2019-04-16T23:35:57.706Z,100274.91
2019-04-16T23:38:24.395Z,100267.48
2019-04-16T23:40:50.985Z,100263.98
2019-04-16T23:43:43.289Z,100266.78
2019-04-16T23:46:26.023Z,100267.36
2019-04-16T23:48:59.366Z,100260.06
2019-04-16T23:51:32.001Z,100264.94
2019-04-16T23:54:07.960Z,100262.67
2019-04-16T23:56:44.824Z,100261.74
2019-04-16T23:59:24.537Z,100256.30
